<?xml version="1.0" encoding="UTF-8" standalone="no" ?>
<gpx xmlns="http://www.topografix.com/GPX/1/1" xmlns:xsi="http://www.w3.org/2001/XMLSchema-instance" xsi:schemaLocation="http://www.topografix.com/GPX/1/1 http://www.topografix.com/GPX/1/1/gpx.xsd" version="1.1" creator="VisuGPX - https://www.visugpx.com">
  <metadata>
    <name>ARQUES LA SEYNE SUR MER 1497 KM</name>
    <desc><![CDATA[Rando de Arques dans le Pas de Calais jusque La Seyne sur Mer dans le Var, 1497 km]]></desc>
  </metadata>
  <trk>
    <name><![CDATA[40 - ST MARTIN EN HAUT ST CHAMOND 31.9 KM]]></name>
    <extensions>
      <line xmlns="http://www.topografix.com/GPX/gpx_style/0/2">
        <color>FF0000</color>
        <width>4</width>
      </line>
    </extensions>
    <trkseg>
      <trkpt lat="45.65177" lon="4.56283">
        <ele>777</ele>
        <time>2021-11-23T10:14:56+01:00</time>
      </trkpt>
      <trkpt lat="45.65165" lon="4.56462">
        <ele>782</ele>
        <time>2021-11-23T10:15:01+01:00</time>
      </trkpt>
      <trkpt lat="45.652" lon="4.56587">
        <ele>787</ele>
        <time>2021-11-23T10:15:06+01:00</time>
      </trkpt>
      <trkpt lat="45.65029" lon="4.56782">
        <ele>799</ele>
        <time>2021-11-23T10:15:11+01:00</time>
      </trkpt>
      <trkpt lat="45.64915" lon="4.5695">
        <ele>804</ele>
        <time>2021-11-23T10:15:16+01:00</time>
      </trkpt>
      <trkpt lat="45.64783" lon="4.5714">
        <ele>807</ele>
        <time>2021-11-23T10:15:21+01:00</time>
      </trkpt>
      <trkpt lat="45.64585" lon="4.57292">
        <ele>805</ele>
        <time>2021-11-23T10:15:26+01:00</time>
      </trkpt>
      <trkpt lat="45.64453" lon="4.57378">
        <ele>797</ele>
        <time>2021-11-23T10:15:31+01:00</time>
      </trkpt>
      <trkpt lat="45.64378" lon="4.57371">
        <ele>790</ele>
        <time>2021-11-23T10:15:36+01:00</time>
      </trkpt>
      <trkpt lat="45.64281" lon="4.57436">
        <ele>782</ele>
        <time>2021-11-23T10:15:41+01:00</time>
      </trkpt>
      <trkpt lat="45.64345" lon="4.57582">
        <ele>795</ele>
        <time>2021-11-23T10:15:46+01:00</time>
      </trkpt>
      <trkpt lat="45.64322" lon="4.57772">
        <ele>806</ele>
        <time>2021-11-23T10:15:51+01:00</time>
      </trkpt>
      <trkpt lat="45.64335" lon="4.57966">
        <ele>819</ele>
        <time>2021-11-23T10:15:56+01:00</time>
      </trkpt>
      <trkpt lat="45.64261" lon="4.5798">
        <ele>833</ele>
        <time>2021-11-23T10:16:01+01:00</time>
      </trkpt>
      <trkpt lat="45.64227" lon="4.58035">
        <ele>842</ele>
        <time>2021-11-23T10:16:06+01:00</time>
      </trkpt>
      <trkpt lat="45.64207" lon="4.5817">
        <ele>852</ele>
        <time>2021-11-23T10:16:11+01:00</time>
      </trkpt>
      <trkpt lat="45.64158" lon="4.58444">
        <ele>856</ele>
        <time>2021-11-23T10:16:16+01:00</time>
      </trkpt>
      <trkpt lat="45.64207" lon="4.58535">
        <ele>846</ele>
        <time>2021-11-23T10:16:21+01:00</time>
      </trkpt>
      <trkpt lat="45.64207" lon="4.58627">
        <ele>849</ele>
        <time>2021-11-23T10:16:26+01:00</time>
      </trkpt>
      <trkpt lat="45.64258" lon="4.58707">
        <ele>845</ele>
        <time>2021-11-23T10:16:31+01:00</time>
      </trkpt>
      <trkpt lat="45.64235" lon="4.58755">
        <ele>850</ele>
        <time>2021-11-23T10:16:36+01:00</time>
      </trkpt>
      <trkpt lat="45.64118" lon="4.58817">
        <ele>868</ele>
        <time>2021-11-23T10:16:41+01:00</time>
      </trkpt>
      <trkpt lat="45.64074" lon="4.58802">
        <ele>874</ele>
        <time>2021-11-23T10:16:46+01:00</time>
      </trkpt>
      <trkpt lat="45.64044" lon="4.58897">
        <ele>883</ele>
        <time>2021-11-23T10:16:51+01:00</time>
      </trkpt>
      <trkpt lat="45.64041" lon="4.59032">
        <ele>890</ele>
        <time>2021-11-23T10:16:56+01:00</time>
      </trkpt>
      <trkpt lat="45.63944" lon="4.59171">
        <ele>912</ele>
        <time>2021-11-23T10:17:01+01:00</time>
      </trkpt>
      <trkpt lat="45.63975" lon="4.59342">
        <ele>920</ele>
        <time>2021-11-23T10:17:06+01:00</time>
      </trkpt>
      <trkpt lat="45.63954" lon="4.59419">
        <ele>924</ele>
        <time>2021-11-23T10:17:11+01:00</time>
      </trkpt>
      <trkpt lat="45.63816" lon="4.59456">
        <ele>919</ele>
        <time>2021-11-23T10:17:16+01:00</time>
      </trkpt>
      <trkpt lat="45.63735" lon="4.59357">
        <ele>921</ele>
        <time>2021-11-23T10:17:21+01:00</time>
      </trkpt>
      <trkpt lat="45.63689" lon="4.59229">
        <ele>907</ele>
        <time>2021-11-23T10:17:26+01:00</time>
      </trkpt>
      <trkpt lat="45.63648" lon="4.59189">
        <ele>894</ele>
        <time>2021-11-23T10:17:31+01:00</time>
      </trkpt>
      <trkpt lat="45.63579" lon="4.59266">
        <ele>882</ele>
        <time>2021-11-23T10:17:36+01:00</time>
      </trkpt>
      <trkpt lat="45.63518" lon="4.59423">
        <ele>859</ele>
        <time>2021-11-23T10:17:41+01:00</time>
      </trkpt>
      <trkpt lat="45.63459" lon="4.5954">
        <ele>855</ele>
        <time>2021-11-23T10:17:46+01:00</time>
      </trkpt>
      <trkpt lat="45.63201" lon="4.59631">
        <ele>867</ele>
        <time>2021-11-23T10:17:51+01:00</time>
      </trkpt>
      <trkpt lat="45.63117" lon="4.59693">
        <ele>869</ele>
        <time>2021-11-23T10:17:56+01:00</time>
      </trkpt>
      <trkpt lat="45.63025" lon="4.59898">
        <ele>856</ele>
        <time>2021-11-23T10:18:01+01:00</time>
      </trkpt>
      <trkpt lat="45.62986" lon="4.60044">
        <ele>845</ele>
        <time>2021-11-23T10:18:06+01:00</time>
      </trkpt>
      <trkpt lat="45.62938" lon="4.60029">
        <ele>841</ele>
        <time>2021-11-23T10:18:11+01:00</time>
      </trkpt>
      <trkpt lat="45.62849" lon="4.59989">
        <ele>834</ele>
        <time>2021-11-23T10:18:16+01:00</time>
      </trkpt>
      <trkpt lat="45.62624" lon="4.59982">
        <ele>822</ele>
        <time>2021-11-23T10:18:21+01:00</time>
      </trkpt>
      <trkpt lat="45.62476" lon="4.60047">
        <ele>827</ele>
        <time>2021-11-23T10:18:26+01:00</time>
      </trkpt>
      <trkpt lat="45.62381" lon="4.59967">
        <ele>824</ele>
        <time>2021-11-23T10:18:31+01:00</time>
      </trkpt>
      <trkpt lat="45.62228" lon="4.59733">
        <ele>839</ele>
        <time>2021-11-23T10:18:36+01:00</time>
      </trkpt>
      <trkpt lat="45.62218" lon="4.59558">
        <ele>845</ele>
        <time>2021-11-23T10:18:41+01:00</time>
      </trkpt>
      <trkpt lat="45.621" lon="4.59401">
        <ele>863</ele>
        <time>2021-11-23T10:18:46+01:00</time>
      </trkpt>
      <trkpt lat="45.61985" lon="4.59332">
        <ele>867</ele>
        <time>2021-11-23T10:18:51+01:00</time>
      </trkpt>
      <trkpt lat="45.61883" lon="4.59364">
        <ele>863</ele>
        <time>2021-11-23T10:18:56+01:00</time>
      </trkpt>
      <trkpt lat="45.61487" lon="4.59317">
        <ele>849</ele>
        <time>2021-11-23T10:19:01+01:00</time>
      </trkpt>
      <trkpt lat="45.61237" lon="4.59244">
        <ele>826</ele>
        <time>2021-11-23T10:19:06+01:00</time>
      </trkpt>
      <trkpt lat="45.61043" lon="4.59061">
        <ele>790</ele>
        <time>2021-11-23T10:19:11+01:00</time>
      </trkpt>
      <trkpt lat="45.60862" lon="4.59025">
        <ele>769</ele>
        <time>2021-11-23T10:19:16+01:00</time>
      </trkpt>
      <trkpt lat="45.6079" lon="4.58988">
        <ele>765</ele>
        <time>2021-11-23T10:19:21+01:00</time>
      </trkpt>
      <trkpt lat="45.60542" lon="4.58933">
        <ele>760</ele>
        <time>2021-11-23T10:19:26+01:00</time>
      </trkpt>
      <trkpt lat="45.60376" lon="4.58963">
        <ele>740</ele>
        <time>2021-11-23T10:19:31+01:00</time>
      </trkpt>
      <trkpt lat="45.6022" lon="4.58915">
        <ele>718</ele>
        <time>2021-11-23T10:19:36+01:00</time>
      </trkpt>
      <trkpt lat="45.60136" lon="4.58904">
        <ele>712</ele>
        <time>2021-11-23T10:19:41+01:00</time>
      </trkpt>
      <trkpt lat="45.60174" lon="4.58758">
        <ele>708</ele>
        <time>2021-11-23T10:19:46+01:00</time>
      </trkpt>
      <trkpt lat="45.6019" lon="4.5859">
        <ele>707</ele>
        <time>2021-11-23T10:19:51+01:00</time>
      </trkpt>
      <trkpt lat="45.60116" lon="4.58346">
        <ele>709</ele>
        <time>2021-11-23T10:19:56+01:00</time>
      </trkpt>
      <trkpt lat="45.6008" lon="4.58126">
        <ele>701</ele>
        <time>2021-11-23T10:20:01+01:00</time>
      </trkpt>
      <trkpt lat="45.60034" lon="4.58035">
        <ele>678</ele>
        <time>2021-11-23T10:20:06+01:00</time>
      </trkpt>
      <trkpt lat="45.60034" lon="4.579">
        <ele>676</ele>
        <time>2021-11-23T10:20:11+01:00</time>
      </trkpt>
      <trkpt lat="45.601" lon="4.57776">
        <ele>688</ele>
        <time>2021-11-23T10:20:16+01:00</time>
      </trkpt>
      <trkpt lat="45.60057" lon="4.57655">
        <ele>685</ele>
        <time>2021-11-23T10:20:21+01:00</time>
      </trkpt>
      <trkpt lat="45.60011" lon="4.57498">
        <ele>692</ele>
        <time>2021-11-23T10:20:26+01:00</time>
      </trkpt>
      <trkpt lat="45.59972" lon="4.57309">
        <ele>688</ele>
        <time>2021-11-23T10:20:31+01:00</time>
      </trkpt>
      <trkpt lat="45.59937" lon="4.57122">
        <ele>694</ele>
        <time>2021-11-23T10:20:36+01:00</time>
      </trkpt>
      <trkpt lat="45.5986" lon="4.57082">
        <ele>695</ele>
        <time>2021-11-23T10:20:41+01:00</time>
      </trkpt>
      <trkpt lat="45.59791" lon="4.57119">
        <ele>691</ele>
        <time>2021-11-23T10:20:46+01:00</time>
      </trkpt>
      <trkpt lat="45.59661" lon="4.57108">
        <ele>694</ele>
        <time>2021-11-23T10:20:51+01:00</time>
      </trkpt>
      <trkpt lat="45.59484" lon="4.57082">
        <ele>707</ele>
        <time>2021-11-23T10:20:56+01:00</time>
      </trkpt>
      <trkpt lat="45.59426" lon="4.57122">
        <ele>716</ele>
        <time>2021-11-23T10:21:01+01:00</time>
      </trkpt>
      <trkpt lat="45.59354" lon="4.57005">
        <ele>726</ele>
        <time>2021-11-23T10:21:06+01:00</time>
      </trkpt>
      <trkpt lat="45.59285" lon="4.57173">
        <ele>741</ele>
        <time>2021-11-23T10:21:11+01:00</time>
      </trkpt>
      <trkpt lat="45.5918" lon="4.57214">
        <ele>755</ele>
        <time>2021-11-23T10:21:16+01:00</time>
      </trkpt>
      <trkpt lat="45.59134" lon="4.57166">
        <ele>758</ele>
        <time>2021-11-23T10:21:21+01:00</time>
      </trkpt>
      <trkpt lat="45.5895" lon="4.57272">
        <ele>788</ele>
        <time>2021-11-23T10:21:26+01:00</time>
      </trkpt>
      <trkpt lat="45.58787" lon="4.57272">
        <ele>809</ele>
        <time>2021-11-23T10:21:31+01:00</time>
      </trkpt>
      <trkpt lat="45.58703" lon="4.57235">
        <ele>812</ele>
        <time>2021-11-23T10:21:36+01:00</time>
      </trkpt>
      <trkpt lat="45.58603" lon="4.57086">
        <ele>818</ele>
        <time>2021-11-23T10:21:41+01:00</time>
      </trkpt>
      <trkpt lat="45.58559" lon="4.56984">
        <ele>816</ele>
        <time>2021-11-23T10:21:46+01:00</time>
      </trkpt>
      <trkpt lat="45.58358" lon="4.56841">
        <ele>794</ele>
        <time>2021-11-23T10:21:51+01:00</time>
      </trkpt>
      <trkpt lat="45.58363" lon="4.56713">
        <ele>805</ele>
        <time>2021-11-23T10:21:56+01:00</time>
      </trkpt>
      <trkpt lat="45.58171" lon="4.56399">
        <ele>827</ele>
        <time>2021-11-23T10:22:01+01:00</time>
      </trkpt>
      <trkpt lat="45.58125" lon="4.56377">
        <ele>827</ele>
        <time>2021-11-23T10:22:06+01:00</time>
      </trkpt>
      <trkpt lat="45.58051" lon="4.56202">
        <ele>826</ele>
        <time>2021-11-23T10:22:11+01:00</time>
      </trkpt>
      <trkpt lat="45.58043" lon="4.56067">
        <ele>820</ele>
        <time>2021-11-23T10:22:16+01:00</time>
      </trkpt>
      <trkpt lat="45.57943" lon="4.5564">
        <ele>804</ele>
        <time>2021-11-23T10:22:21+01:00</time>
      </trkpt>
      <trkpt lat="45.57895" lon="4.55461">
        <ele>805</ele>
        <time>2021-11-23T10:22:26+01:00</time>
      </trkpt>
      <trkpt lat="45.57851" lon="4.5526">
        <ele>812</ele>
        <time>2021-11-23T10:22:31+01:00</time>
      </trkpt>
      <trkpt lat="45.5788" lon="4.54979">
        <ele>824</ele>
        <time>2021-11-23T10:22:36+01:00</time>
      </trkpt>
      <trkpt lat="45.5789" lon="4.54771">
        <ele>837</ele>
        <time>2021-11-23T10:22:41+01:00</time>
      </trkpt>
      <trkpt lat="45.5791" lon="4.54588">
        <ele>842</ele>
        <time>2021-11-23T10:22:46+01:00</time>
      </trkpt>
      <trkpt lat="45.57851" lon="4.54424">
        <ele>847</ele>
        <time>2021-11-23T10:22:51+01:00</time>
      </trkpt>
      <trkpt lat="45.57609" lon="4.54168">
        <ele>854</ele>
        <time>2021-11-23T10:22:56+01:00</time>
      </trkpt>
      <trkpt lat="45.57547" lon="4.53964">
        <ele>855</ele>
        <time>2021-11-23T10:23:01+01:00</time>
      </trkpt>
      <trkpt lat="45.57422" lon="4.53748">
        <ele>864</ele>
        <time>2021-11-23T10:23:06+01:00</time>
      </trkpt>
      <trkpt lat="45.5735" lon="4.53609">
        <ele>866</ele>
        <time>2021-11-23T10:23:11+01:00</time>
      </trkpt>
      <trkpt lat="45.57289" lon="4.53449">
        <ele>868</ele>
        <time>2021-11-23T10:23:16+01:00</time>
      </trkpt>
      <trkpt lat="45.57287" lon="4.53211">
        <ele>870</ele>
        <time>2021-11-23T10:23:21+01:00</time>
      </trkpt>
      <trkpt lat="45.57264" lon="4.5289">
        <ele>874</ele>
        <time>2021-11-23T10:23:26+01:00</time>
      </trkpt>
      <trkpt lat="45.57345" lon="4.5262">
        <ele>856</ele>
        <time>2021-11-23T10:23:31+01:00</time>
      </trkpt>
      <trkpt lat="45.57315" lon="4.52488">
        <ele>852</ele>
        <time>2021-11-23T10:23:36+01:00</time>
      </trkpt>
      <trkpt lat="45.57253" lon="4.52426">
        <ele>854</ele>
        <time>2021-11-23T10:23:41+01:00</time>
      </trkpt>
      <trkpt lat="45.57156" lon="4.52149">
        <ele>859</ele>
        <time>2021-11-23T10:23:46+01:00</time>
      </trkpt>
      <trkpt lat="45.57212" lon="4.51809">
        <ele>869</ele>
        <time>2021-11-23T10:23:51+01:00</time>
      </trkpt>
      <trkpt lat="45.57103" lon="4.51663">
        <ele>863</ele>
        <time>2021-11-23T10:23:56+01:00</time>
      </trkpt>
      <trkpt lat="45.57021" lon="4.51418">
        <ele>861</ele>
        <time>2021-11-23T10:24:01+01:00</time>
      </trkpt>
      <trkpt lat="45.57021" lon="4.5121">
        <ele>869</ele>
        <time>2021-11-23T10:24:06+01:00</time>
      </trkpt>
      <trkpt lat="45.56936" lon="4.50783">
        <ele>873</ele>
        <time>2021-11-23T10:24:11+01:00</time>
      </trkpt>
      <trkpt lat="45.56883" lon="4.50465">
        <ele>862</ele>
        <time>2021-11-23T10:24:16+01:00</time>
      </trkpt>
      <trkpt lat="45.5687" lon="4.50235">
        <ele>838</ele>
        <time>2021-11-23T10:24:21+01:00</time>
      </trkpt>
      <trkpt lat="45.56757" lon="4.50064">
        <ele>825</ele>
        <time>2021-11-23T10:24:26+01:00</time>
      </trkpt>
      <trkpt lat="45.56604" lon="4.49918">
        <ele>827</ele>
        <time>2021-11-23T10:24:31+01:00</time>
      </trkpt>
      <trkpt lat="45.56415" lon="4.49757">
        <ele>832</ele>
        <time>2021-11-23T10:24:36+01:00</time>
      </trkpt>
      <trkpt lat="45.56223" lon="4.496">
        <ele>834</ele>
        <time>2021-11-23T10:24:41+01:00</time>
      </trkpt>
      <trkpt lat="45.56044" lon="4.49487">
        <ele>839</ele>
        <time>2021-11-23T10:24:46+01:00</time>
      </trkpt>
      <trkpt lat="45.55868" lon="4.49516">
        <ele>845</ele>
        <time>2021-11-23T10:24:51+01:00</time>
      </trkpt>
      <trkpt lat="45.55781" lon="4.49593">
        <ele>855</ele>
        <time>2021-11-23T10:24:56+01:00</time>
      </trkpt>
      <trkpt lat="45.55627" lon="4.496">
        <ele>862</ele>
        <time>2021-11-23T10:25:01+01:00</time>
      </trkpt>
      <trkpt lat="45.5539" lon="4.49476">
        <ele>860</ele>
        <time>2021-11-23T10:25:06+01:00</time>
      </trkpt>
      <trkpt lat="45.5518" lon="4.49421">
        <ele>852</ele>
        <time>2021-11-23T10:25:11+01:00</time>
      </trkpt>
      <trkpt lat="45.5507" lon="4.49494">
        <ele>833</ele>
        <time>2021-11-23T10:25:16+01:00</time>
      </trkpt>
      <trkpt lat="45.54955" lon="4.49622">
        <ele>805</ele>
        <time>2021-11-23T10:25:21+01:00</time>
      </trkpt>
      <trkpt lat="45.54824" lon="4.49666">
        <ele>784</ele>
        <time>2021-11-23T10:25:26+01:00</time>
      </trkpt>
      <trkpt lat="45.54645" lon="4.49673">
        <ele>772</ele>
        <time>2021-11-23T10:25:31+01:00</time>
      </trkpt>
      <trkpt lat="45.54433" lon="4.49622">
        <ele>766</ele>
        <time>2021-11-23T10:25:36+01:00</time>
      </trkpt>
      <trkpt lat="45.5419" lon="4.49381">
        <ele>770</ele>
        <time>2021-11-23T10:25:41+01:00</time>
      </trkpt>
      <trkpt lat="45.53929" lon="4.49165">
        <ele>776</ele>
        <time>2021-11-23T10:25:46+01:00</time>
      </trkpt>
      <trkpt lat="45.53704" lon="4.48975">
        <ele>762</ele>
        <time>2021-11-23T10:25:51+01:00</time>
      </trkpt>
      <trkpt lat="45.53551" lon="4.48738">
        <ele>749</ele>
        <time>2021-11-23T10:25:56+01:00</time>
      </trkpt>
      <trkpt lat="45.53433" lon="4.48632">
        <ele>755</ele>
        <time>2021-11-23T10:26:01+01:00</time>
      </trkpt>
      <trkpt lat="45.53356" lon="4.48665">
        <ele>757</ele>
        <time>2021-11-23T10:26:06+01:00</time>
      </trkpt>
      <trkpt lat="45.53259" lon="4.48818">
        <ele>751</ele>
        <time>2021-11-23T10:26:11+01:00</time>
      </trkpt>
      <trkpt lat="45.53101" lon="4.48888">
        <ele>741</ele>
        <time>2021-11-23T10:26:16+01:00</time>
      </trkpt>
      <trkpt lat="45.52952" lon="4.48888">
        <ele>731</ele>
        <time>2021-11-23T10:26:21+01:00</time>
      </trkpt>
      <trkpt lat="45.52776" lon="4.48943">
        <ele>727</ele>
        <time>2021-11-23T10:26:26+01:00</time>
      </trkpt>
      <trkpt lat="45.52576" lon="4.48888">
        <ele>738</ele>
        <time>2021-11-23T10:26:31+01:00</time>
      </trkpt>
      <trkpt lat="45.52418" lon="4.48884">
        <ele>750</ele>
        <time>2021-11-23T10:26:36+01:00</time>
      </trkpt>
      <trkpt lat="45.52272" lon="4.4887">
        <ele>749</ele>
        <time>2021-11-23T10:26:41+01:00</time>
      </trkpt>
      <trkpt lat="45.52157" lon="4.48804">
        <ele>753</ele>
        <time>2021-11-23T10:26:46+01:00</time>
      </trkpt>
      <trkpt lat="45.51929" lon="4.4891">
        <ele>769</ele>
        <time>2021-11-23T10:26:51+01:00</time>
      </trkpt>
      <trkpt lat="45.51837" lon="4.48983">
        <ele>772</ele>
        <time>2021-11-23T10:26:56+01:00</time>
      </trkpt>
      <trkpt lat="45.51637" lon="4.49016">
        <ele>789</ele>
        <time>2021-11-23T10:27:01+01:00</time>
      </trkpt>
      <trkpt lat="45.51612" lon="4.49271">
        <ele>790</ele>
        <time>2021-11-23T10:27:06+01:00</time>
      </trkpt>
      <trkpt lat="45.51724" lon="4.49636">
        <ele>790</ele>
        <time>2021-11-23T10:27:11+01:00</time>
      </trkpt>
      <trkpt lat="45.51734" lon="4.49863">
        <ele>796</ele>
        <time>2021-11-23T10:27:16+01:00</time>
      </trkpt>
      <trkpt lat="45.51814" lon="4.49991">
        <ele>783</ele>
        <time>2021-11-23T10:27:21+01:00</time>
      </trkpt>
      <trkpt lat="45.51934" lon="4.50162">
        <ele>760</ele>
        <time>2021-11-23T10:27:26+01:00</time>
      </trkpt>
      <trkpt lat="45.52013" lon="4.5021">
        <ele>754</ele>
        <time>2021-11-23T10:27:31+01:00</time>
      </trkpt>
      <trkpt lat="45.51942" lon="4.50232">
        <ele>752</ele>
        <time>2021-11-23T10:27:36+01:00</time>
      </trkpt>
      <trkpt lat="45.51847" lon="4.50159">
        <ele>751</ele>
        <time>2021-11-23T10:27:41+01:00</time>
      </trkpt>
      <trkpt lat="45.51568" lon="4.50199">
        <ele>715</ele>
        <time>2021-11-23T10:27:46+01:00</time>
      </trkpt>
      <trkpt lat="45.51453" lon="4.50308">
        <ele>688</ele>
        <time>2021-11-23T10:27:51+01:00</time>
      </trkpt>
      <trkpt lat="45.51348" lon="4.50476">
        <ele>657</ele>
        <time>2021-11-23T10:27:56+01:00</time>
      </trkpt>
      <trkpt lat="45.51154" lon="4.50626">
        <ele>608</ele>
        <time>2021-11-23T10:28:01+01:00</time>
      </trkpt>
      <trkpt lat="45.51054" lon="4.50801">
        <ele>584</ele>
        <time>2021-11-23T10:28:06+01:00</time>
      </trkpt>
      <trkpt lat="45.50974" lon="4.50852">
        <ele>575</ele>
        <time>2021-11-23T10:28:11+01:00</time>
      </trkpt>
      <trkpt lat="45.50813" lon="4.50863">
        <ele>552</ele>
        <time>2021-11-23T10:28:16+01:00</time>
      </trkpt>
      <trkpt lat="45.50742" lon="4.50911">
        <ele>544</ele>
        <time>2021-11-23T10:28:21+01:00</time>
      </trkpt>
      <trkpt lat="45.5057" lon="4.50922">
        <ele>519</ele>
        <time>2021-11-23T10:28:26+01:00</time>
      </trkpt>
      <trkpt lat="45.50404" lon="4.50947">
        <ele>506</ele>
        <time>2021-11-23T10:28:31+01:00</time>
      </trkpt>
      <trkpt lat="45.49923" lon="4.51572">
        <ele>453</ele>
        <time>2021-11-23T10:28:36+01:00</time>
      </trkpt>
      <trkpt lat="45.49554" lon="4.51455">
        <ele>425</ele>
        <time>2021-11-23T10:28:41+01:00</time>
      </trkpt>
      <trkpt lat="45.49454" lon="4.51444">
        <ele>415</ele>
        <time>2021-11-23T10:28:46+01:00</time>
      </trkpt>
      <trkpt lat="45.49162" lon="4.51583">
        <ele>395</ele>
        <time>2021-11-23T10:28:51+01:00</time>
      </trkpt>
      <trkpt lat="45.49027" lon="4.51656">
        <ele>381</ele>
        <time>2021-11-23T10:28:56+01:00</time>
      </trkpt>
      <trkpt lat="45.48978" lon="4.51619">
        <ele>377</ele>
        <time>2021-11-23T10:29:01+01:00</time>
      </trkpt>
      <trkpt lat="45.48919" lon="4.51597">
        <ele>371</ele>
        <time>2021-11-23T10:29:06+01:00</time>
      </trkpt>
      <trkpt lat="45.48876" lon="4.5147">
        <ele>370</ele>
        <time>2021-11-23T10:29:11+01:00</time>
      </trkpt>
      <trkpt lat="45.48842" lon="4.51123">
        <ele>394</ele>
        <time>2021-11-23T10:29:16+01:00</time>
      </trkpt>
      <trkpt lat="45.48822" lon="4.50845">
        <ele>405</ele>
        <time>2021-11-23T10:29:21+01:00</time>
      </trkpt>
      <trkpt lat="45.48727" lon="4.50816">
        <ele>403</ele>
        <time>2021-11-23T10:29:26+01:00</time>
      </trkpt>
      <trkpt lat="45.4863" lon="4.50885">
        <ele>392</ele>
        <time>2021-11-23T10:29:31+01:00</time>
      </trkpt>
      <trkpt lat="45.48566" lon="4.50882">
        <ele>385</ele>
        <time>2021-11-23T10:29:36+01:00</time>
      </trkpt>
      <trkpt lat="45.4854" lon="4.50827">
        <ele>383</ele>
        <time>2021-11-23T10:29:41+01:00</time>
      </trkpt>
      <trkpt lat="45.48333" lon="4.50871">
        <ele>382</ele>
        <time>2021-11-23T10:29:46+01:00</time>
      </trkpt>
      <trkpt lat="45.48113" lon="4.51031">
        <ele>384</ele>
        <time>2021-11-23T10:29:51+01:00</time>
      </trkpt>
      <trkpt lat="45.48121" lon="4.51117">
        <ele>376</ele>
        <time>2021-11-23T10:29:56+01:00</time>
      </trkpt>
      <trkpt lat="45.48077" lon="4.51243">
        <ele>371</ele>
        <time>2021-11-23T10:30:01+01:00</time>
      </trkpt>
      <trkpt lat="45.48011" lon="4.5134">
        <ele>369</ele>
        <time>2021-11-23T10:30:06+01:00</time>
      </trkpt>
      <trkpt lat="45.47875" lon="4.51227">
        <ele>362</ele>
        <time>2021-11-23T10:30:11+01:00</time>
      </trkpt>
      <trkpt lat="45.47866" lon="4.51235">
        <ele>360</ele>
        <time>2021-11-23T10:30:16+01:00</time>
      </trkpt>
      <trkpt lat="45.47852" lon="4.51213">
        <ele>359</ele>
        <time>2021-11-23T10:30:21+01:00</time>
      </trkpt>
      <trkpt lat="45.47761" lon="4.51265">
        <ele>360</ele>
        <time>2021-11-23T10:30:26+01:00</time>
      </trkpt>
      <trkpt lat="45.47729" lon="4.51305">
        <ele>360</ele>
        <time>2021-11-23T10:30:31+01:00</time>
      </trkpt>
      <trkpt lat="45.4774" lon="4.51408">
        <ele>355</ele>
        <time>2021-11-23T10:30:36+01:00</time>
      </trkpt>
      <trkpt lat="45.47605" lon="4.51468">
        <ele>366</ele>
        <time>2021-11-23T10:30:41+01:00</time>
      </trkpt>
      <trkpt lat="45.47527" lon="4.51556">
        <ele>370</ele>
        <time>2021-11-23T10:30:46+01:00</time>
      </trkpt>
      <trkpt lat="45.47472" lon="4.51615">
        <ele>371</ele>
        <time>2021-11-23T10:30:51+01:00</time>
      </trkpt>
      <trkpt lat="45.47322" lon="4.51626">
        <ele>378</ele>
        <time>2021-11-23T10:30:56+01:00</time>
      </trkpt>
    </trkseg>
  </trk>
</gpx>